Merry Christmas and Happy New Year!

 

Sretan Božić i Nova godina!

 

METAR

METAR LDZA 052200Z 25002KT CAVOK 19/17 Q1014 NOSIG =
METAR LDSP 052200Z AUTO 08006KT 360V110 CAVOK 27/14 Q1011=
METAR LDDU 052200Z 03012KT 330V090 CAVOK 28/13 Q1010 =
METAR LDZD 052200Z 04009KT CAVOK 23/13 Q1012 =
METAR LDPL 052200Z 04005KT CAVOK 22/15 Q1013=
METAR LDOS 052200Z 26005KT CAVOK 17/15 Q1013=
METAR LDRI 052200Z 01009KT CAVOK 25/12 Q1013=

TAF

TAF LDZA 051725Z 0518/0618 VRB02KT CAVOK
                 TX31/0614Z TN15/0603Z
           TEMPO 0610/0618 06008KT=
TAF LDSP 051725Z 0518/0618 33005KT CAVOK
                 TX34/0614Z TN21/0603Z
           TEMPO 0518/0601 05008KT
           BECMG 0609/0611 23008KT
           BECMG 0616/0618 33005KT=
TAF LDDU 051725Z 0518/0618 02012KT 9999 FEW040
                 TX30/0611Z TN25/0603Z
    PROB30 TEMPO 0518/0522 02020G30KT
           BECMG 0606/0608 15008KT
           BECMG 0609/0611 29008KT
    PROB30 TEMPO 0612/0615 TSRA FEW040CB SCT045
           BECMG 0615/0617 02018KT=
TAF LDZD 051725Z 0518/0618 30010KT CAVOK
                 TX33/0613Z TN19/0603Z
           BECMG 0518/0519 04006KT
           BECMG 0610/0612 30012KT=
TAF LDPL 051725Z 0518/0618 30006KT CAVOK
                 TX32/0613Z TN20/0603Z
           BECMG 0518/0520 05008KT
           BECMG 0613/0615 27010KT=
TAF LDOS 051725Z 0518/0618 33006KT CAVOK
                 TX32/0614Z TN17/0603Z=
TAF LDRI 051725Z 0518/0618 06008KT CAVOK
                 TX32/0613Z TN22/0603Z
           BECMG 0610/0612 30007KT
           BECMG 0616/0618 VRB02KT=
TAF AMD LDLO 051900Z 0519/0612 CNL=

SIGMET

AIRMET

Remark

Ukoliko se brzina i smjer vjetra ne mogu odrediti zbog privremenog kvara sustava/indikatora,
informacija o vjetru u METAR izvješću bit će prikazana kao "/////KT".

 

Disclaimer

 

In case of temporary system/sensor failure, wind speed and direction data will be represented as "/////KT" in METAR report.

 

If you cannot log in with your user account, please contact stjepko.jancijev@crocontrol.hr.
Specifically, the website deactivates user accounts that have not been used for more than 365 days, so they must be reactivated.
 

         

      Politika MET podataka      

 

Ukoliko se svojim korisničkim računom ne možete logirati na web stranicu, molim vas da se obratite na stjepko.jancijev@crocontrol.hr.

Naime, web stranica deaktivira korisničke račune koji nisu korišteni više od 365 dana te ih je potrebno ponovno aktivirati.